createdAt,value
2018-04-17T00:01:31.270Z,92.40
2018-04-17T00:04:03.610Z,92.50
2018-04-17T00:06:35.809Z,92.60
2018-04-17T00:09:08.050Z,92.60
2018-04-17T00:11:40.210Z,92.60
2018-04-17T00:14:12.409Z,92.70
2018-04-17T00:16:44.550Z,92.60
2018-04-17T00:19:16.689Z,92.60
2018-04-17T00:21:48.809Z,92.60
2018-04-17T00:24:21.009Z,92.40
2018-04-17T00:26:53.851Z,92.20
2018-04-17T00:29:26.109Z,92.20
2018-04-17T00:31:58.330Z,92.00
2018-04-17T00:34:31.308Z,92.00
2018-04-17T00:37:03.450Z,91.90
2018-04-17T00:39:35.708Z,91.80
2018-04-17T00:42:07.888Z,91.80
2018-04-17T00:44:40.068Z,91.80
2018-04-17T00:47:12.228Z,91.60
2018-04-17T00:49:44.409Z,91.50
2018-04-17T00:52:16.575Z,91.40
2018-04-17T00:54:48.810Z,91.40
2018-04-17T00:57:20.950Z,91.50
2018-04-17T00:59:53.130Z,91.50
2018-04-17T01:02:25.290Z,91.50
2018-04-17T01:04:57.590Z,91.50
2018-04-17T01:07:29.818Z,91.40
2018-04-17T01:10:02.819Z,91.30
2018-04-17T01:12:34.991Z,91.30
2018-04-17T01:15:07.291Z,91.20
2018-04-17T01:17:39.455Z,91.20
2018-04-17T01:20:11.670Z,91.00
2018-04-17T01:22:43.850Z,90.90
2018-04-17T01:25:16.071Z,90.80
2018-04-17T01:27:48.230Z,90.90
2018-04-17T01:30:20.410Z,91.00
2018-04-17T01:32:52.610Z,91.00
2018-04-17T01:35:24.851Z,91.10
2018-04-17T01:37:57.010Z,91.20
2018-04-17T01:40:29.149Z,91.30
2018-04-17T01:43:01.390Z,91.20
2018-04-17T01:45:33.610Z,91.30
2018-04-17T01:48:05.771Z,91.40
2018-04-17T01:50:32.829Z,91.60
2018-04-17T01:53:05.152Z,91.70
2018-04-17T01:55:37.351Z,91.80
2018-04-17T01:58:09.552Z,91.80
2018-04-17T02:00:41.713Z,91.80
2018-04-17T02:03:14.633Z,91.90
2018-04-17T02:05:46.816Z,91.90
2018-04-17T02:08:19.013Z,91.90
2018-04-17T02:10:51.133Z,92.00
2018-04-17T02:13:23.292Z,92.30
2018-04-17T02:15:55.373Z,92.40
2018-04-17T02:18:27.453Z,92.60
2018-04-17T02:20:59.673Z,92.50
2018-04-17T02:23:31.853Z,92.60
2018-04-17T02:26:04.813Z,92.20
2018-04-17T02:28:36.972Z,92.20
2018-04-17T02:31:09.193Z,92.20
2018-04-17T02:33:41.354Z,92.60
2018-04-17T02:36:13.614Z,92.80
2018-04-17T02:38:45.773Z,93.00
2018-04-17T02:41:18.041Z,93.20
2018-04-17T02:43:50.233Z,93.40
2018-04-17T02:46:22.493Z,93.50
2018-04-17T02:48:54.592Z,93.50
2018-04-17T02:51:26.754Z,93.40
2018-04-17T02:53:58.892Z,93.40
2018-04-17T02:56:31.052Z,93.60
2018-04-17T02:59:03.332Z,93.70
2018-04-17T03:01:35.540Z,93.70
2018-04-17T03:04:07.731Z,93.60
2018-04-17T03:06:40.671Z,93.70
2018-04-17T03:09:12.851Z,93.70
2018-04-17T03:11:45.091Z,93.80
2018-04-17T03:14:17.290Z,94.10
2018-04-17T03:16:49.471Z,94.20
2018-04-17T03:19:21.631Z,94.20
2018-04-17T03:21:53.831Z,94.30
2018-04-17T03:24:26.731Z,94.30
2018-04-17T03:26:59.671Z,94.30
2018-04-17T03:29:31.836Z,94.30
2018-04-17T03:32:03.973Z,94.30
2018-04-17T03:34:37.691Z,94.00
2018-04-17T03:37:09.950Z,93.90
2018-04-17T03:39:42.213Z,93.70
2018-04-17T03:42:14.510Z,94.00
2018-04-17T03:44:46.749Z,94.10
2018-04-17T03:47:19.010Z,94.30
2018-04-17T03:49:51.330Z,94.40
2018-04-17T03:52:23.609Z,94.40
2018-04-17T03:54:55.830Z,94.50
2018-04-17T03:57:28.049Z,94.60
2018-04-17T04:00:00.190Z,94.70
2018-04-17T04:02:32.409Z,94.70
2018-04-17T04:05:04.549Z,94.80
2018-04-17T04:07:36.749Z,94.80
2018-04-17T04:10:08.870Z,94.80
2018-04-17T04:12:41.029Z,95.00
2018-04-17T04:15:13.130Z,95.10
2018-04-17T04:18:03.449Z,95.30
2018-04-17T04:20:53.649Z,95.40
2018-04-17T04:26:32.636Z,95.50
2018-04-17T04:29:04.908Z,95.50
2018-04-17T04:31:37.208Z,95.50
2018-04-17T04:34:09.569Z,95.40
2018-04-17T04:36:42.108Z,95.30
2018-04-17T04:39:14.469Z,95.00
2018-04-17T04:41:46.709Z,94.90
2018-04-17T04:44:18.829Z,94.70
2018-04-17T04:46:51.009Z,94.80
2018-04-17T04:49:23.192Z,94.90
2018-04-17T04:51:56.069Z,95.30
2018-04-17T04:54:28.190Z,95.30
2018-04-17T04:57:00.348Z,95.50
2018-04-17T04:59:32.549Z,95.70
2018-04-17T05:02:04.909Z,95.90
2018-04-17T05:04:37.209Z,96.20
2018-04-17T05:07:09.489Z,96.40
2018-04-17T05:09:41.654Z,96.50
2018-04-17T05:12:13.830Z,96.70
2018-04-17T05:14:46.012Z,96.90
2018-04-17T05:17:18.310Z,97.30
2018-04-17T05:19:50.510Z,97.10
2018-04-17T05:22:22.750Z,97.30
2018-04-17T05:24:54.970Z,97.40
2018-04-17T05:27:27.170Z,97.50
2018-04-17T05:29:59.309Z,97.60
2018-04-17T05:32:31.490Z,98.00
2018-04-17T05:35:03.690Z,98.00
2018-04-17T05:37:36.631Z,98.10
2018-04-17T05:40:08.747Z,98.10
2018-04-17T05:42:40.974Z,98.10
2018-04-17T05:45:13.151Z,98.20
2018-04-17T05:47:45.391Z,98.10
2018-04-17T05:50:17.571Z,98.10
2018-04-17T05:52:49.750Z,98.10
2018-04-17T05:55:21.871Z,98.00
2018-04-17T05:57:54.114Z,98.00
2018-04-17T06:00:26.311Z,97.80
2018-04-17T06:02:58.513Z,97.50
2018-04-17T06:05:30.718Z,97.10
2018-04-17T06:08:02.911Z,97.00
2018-04-17T06:10:35.071Z,96.90
2018-04-17T06:13:07.251Z,96.60
2018-04-17T06:15:39.450Z,96.30
2018-04-17T06:18:11.630Z,96.00
2018-04-17T06:20:43.770Z,95.80
2018-04-17T06:23:16.660Z,95.10
2018-04-17T06:25:48.891Z,95.10
2018-04-17T06:28:21.092Z,94.90
2018-04-17T06:30:54.011Z,94.60
2018-04-17T06:33:26.190Z,94.60
2018-04-17T06:35:58.310Z,94.70
2018-04-17T06:38:30.550Z,94.30
2018-04-17T06:41:03.491Z,94.40
2018-04-17T06:43:35.690Z,94.40
2018-04-17T06:46:07.870Z,94.50
2018-04-17T06:48:40.070Z,94.10
2018-04-17T06:51:12.270Z,93.80
2018-04-17T06:53:44.490Z,93.60
2018-04-17T06:56:17.369Z,93.30
2018-04-17T06:58:49.630Z,93.30
2018-04-17T07:01:21.750Z,93.40
2018-04-17T07:03:53.930Z,93.50
2018-04-17T07:06:26.110Z,93.20
2018-04-17T07:08:58.312Z,92.50
2018-04-17T07:11:30.471Z,92.70
2018-04-17T07:14:02.691Z,92.80
2018-04-17T07:16:34.890Z,92.00
2018-04-17T07:19:07.331Z,91.80
2018-04-17T07:21:39.550Z,91.90
2018-04-17T07:24:11.792Z,91.60
2018-04-17T07:26:43.974Z,91.10
2018-04-17T07:29:16.151Z,91.30
2018-04-17T07:31:48.311Z,91.40
2018-04-17T07:34:20.471Z,91.10
2018-04-17T07:36:52.590Z,91.30
2018-04-17T07:39:24.810Z,90.70
2018-04-17T07:41:56.932Z,90.70
2018-04-17T07:44:29.171Z,90.40
2018-04-17T07:47:28.328Z,90.80
2018-04-17T07:50:00.531Z,90.60
2018-04-17T07:52:33.411Z,91.00
2018-04-17T07:55:05.671Z,91.00
2018-04-17T07:57:37.873Z,91.20
2018-04-17T08:00:10.159Z,90.40
2018-04-17T08:02:42.310Z,90.00
2018-04-17T08:05:14.554Z,90.20
2018-04-17T08:07:46.691Z,89.70
2018-04-17T08:10:18.890Z,88.90
2018-04-17T08:12:51.030Z,88.00
2018-04-17T08:15:23.210Z,84.50
2018-04-17T08:17:55.390Z,86.00
2018-04-17T08:20:28.311Z,83.80
2018-04-17T08:23:00.492Z,83.80
2018-04-17T08:25:32.690Z,84.20
2018-04-17T08:28:04.811Z,83.50
2018-04-17T08:30:37.030Z,83.10
2018-04-17T08:33:09.250Z,84.00
2018-04-17T08:35:41.510Z,83.30
2018-04-17T08:38:13.711Z,82.60
2018-04-17T08:40:46.030Z,82.80
2018-04-17T08:43:18.913Z,84.30
2018-04-17T08:45:51.953Z,82.90
2018-04-17T08:48:24.130Z,83.00
2018-04-17T08:50:56.330Z,81.10
2018-04-17T08:53:29.230Z,82.60
2018-04-17T08:56:01.390Z,82.60
2018-04-17T08:58:34.290Z,79.20
2018-04-17T09:01:06.470Z,79.20
2018-04-17T09:03:38.610Z,83.00
2018-04-17T09:06:11.590Z,80.00
2018-04-17T09:08:44.530Z,77.00
2018-04-17T09:11:16.770Z,77.00
2018-04-17T09:13:48.929Z,75.50
2018-04-17T09:16:21.170Z,76.50
2018-04-17T09:18:54.070Z,76.80
2018-04-17T09:21:27.033Z,78.20
2018-04-17T09:23:59.214Z,78.30
2018-04-17T09:26:32.170Z,76.30
2018-04-17T09:29:04.354Z,76.40
2018-04-17T09:31:36.591Z,74.70
2018-04-17T09:34:08.770Z,77.50
2018-04-17T09:36:40.955Z,71.70
2018-04-17T09:39:13.150Z,72.60
2018-04-17T09:41:45.430Z,70.90
2018-04-17T09:44:17.610Z,71.40
2018-04-17T09:46:49.832Z,66.20
2018-04-17T09:49:21.950Z,67.00
2018-04-17T09:51:54.151Z,68.20
2018-04-17T09:54:26.330Z,70.40
2018-04-17T09:56:58.509Z,69.10
2018-04-17T09:59:31.430Z,68.70
2018-04-17T10:02:03.674Z,68.50
2018-04-17T10:04:35.871Z,69.90
2018-04-17T10:07:08.070Z,62.90
2018-04-17T10:09:40.250Z,62.70
2018-04-17T10:12:12.490Z,66.40
2018-04-17T10:14:44.650Z,64.90
2018-04-17T10:17:16.928Z,66.00
2018-04-17T10:19:49.091Z,61.20
2018-04-17T10:22:21.311Z,64.60
2018-04-17T10:24:54.170Z,61.00
2018-04-17T10:27:26.421Z,61.00
2018-04-17T10:29:58.570Z,62.30
2018-04-17T10:32:30.850Z,63.30
2018-04-17T10:35:03.750Z,59.60
2018-04-17T10:37:36.010Z,61.70
2018-04-17T10:40:08.290Z,60.80
2018-04-17T10:42:41.342Z,62.10
2018-04-17T10:45:13.550Z,62.30
2018-04-17T10:47:45.732Z,58.50
2018-04-17T10:50:17.910Z,58.00
2018-04-17T10:52:50.850Z,60.40
2018-04-17T10:55:22.970Z,60.10
2018-04-17T10:57:55.910Z,60.10
2018-04-17T11:00:28.096Z,60.20
2018-04-17T11:03:01.111Z,58.40
2018-04-17T11:05:34.010Z,56.20
2018-04-17T11:08:06.190Z,56.10
2018-04-17T11:10:38.391Z,60.90
2018-04-17T11:13:10.650Z,54.20
2018-04-17T11:15:42.797Z,56.00
2018-04-17T11:18:15.010Z,58.10
2018-04-17T11:20:47.131Z,54.10
2018-04-17T11:23:19.330Z,54.90
2018-04-17T11:25:51.451Z,53.70
2018-04-17T11:28:23.650Z,54.60
2018-04-17T11:30:55.774Z,52.80
2018-04-17T11:33:28.010Z,54.10
2018-04-17T11:36:00.250Z,52.20
2018-04-17T11:38:32.511Z,53.50
2018-04-17T11:41:04.670Z,53.80
2018-04-17T11:43:37.691Z,53.70
2018-04-17T11:46:09.850Z,53.80
2018-04-17T11:48:42.076Z,55.00
2018-04-17T11:51:14.250Z,58.50
2018-04-17T11:53:46.430Z,57.90
2018-04-17T11:56:18.590Z,51.10
2018-04-17T11:58:50.811Z,53.00
2018-04-17T12:01:22.990Z,53.70
2018-04-17T12:03:55.970Z,51.90
2018-04-17T12:06:28.950Z,52.40
2018-04-17T12:09:01.210Z,52.40
2018-04-17T12:11:33.369Z,55.80
2018-04-17T12:14:05.570Z,52.60
2018-04-17T12:16:38.470Z,56.20
2018-04-17T12:19:10.650Z,56.20
2018-04-17T12:21:42.810Z,51.70
2018-04-17T12:24:14.949Z,53.10
2018-04-17T12:26:47.929Z,52.60
2018-04-17T12:29:20.889Z,54.30
2018-04-17T12:31:53.108Z,54.10
2018-04-17T12:34:21.009Z,54.80
2018-04-17T12:36:53.228Z,54.60
2018-04-17T12:39:26.171Z,53.60
2018-04-17T12:41:58.328Z,53.40
2018-04-17T12:44:31.310Z,56.00
2018-04-17T12:49:24.268Z,52.20
2018-04-17T12:51:56.505Z,52.80
2018-04-17T12:54:28.608Z,52.90
2018-04-17T12:57:00.808Z,53.20
2018-04-17T12:59:33.007Z,51.30
2018-04-17T13:02:05.228Z,50.90
2018-04-17T13:04:37.372Z,51.10
2018-04-17T13:07:09.660Z,50.80
2018-04-17T13:09:41.867Z,48.40
2018-04-17T13:12:14.088Z,48.80
2018-04-17T13:14:46.272Z,52.00
2018-04-17T13:17:19.269Z,51.20
2018-04-17T13:19:51.389Z,51.20
2018-04-17T13:22:23.569Z,54.20
2018-04-17T13:24:55.749Z,55.60
2018-04-17T13:27:28.050Z,54.50
2018-04-17T13:30:00.230Z,52.40
2018-04-17T13:32:32.450Z,52.70
2018-04-17T13:35:04.650Z,54.20
2018-04-17T13:37:36.910Z,51.70
2018-04-17T13:40:09.850Z,50.90
2018-04-17T13:42:42.070Z,50.90
2018-04-17T13:45:14.271Z,51.00
2018-04-17T13:47:46.474Z,50.80
2018-04-17T13:50:18.670Z,53.30
2018-04-17T13:52:50.911Z,50.40
2018-04-17T13:55:23.049Z,51.10
2018-04-17T13:57:55.290Z,49.90
2018-04-17T14:00:28.170Z,47.10
2018-04-17T14:03:01.189Z,50.40
2018-04-17T14:05:33.447Z,50.30
2018-04-17T14:08:05.684Z,51.40
2018-04-17T14:10:37.844Z,49.40
2018-04-17T14:13:10.025Z,51.50
2018-04-17T14:15:42.211Z,49.50
2018-04-17T14:18:15.145Z,48.60
2018-04-17T14:20:47.368Z,48.70
2018-04-17T14:23:20.344Z,49.80
2018-04-17T14:25:52.383Z,49.60
2018-04-17T14:28:24.588Z,50.30
2018-04-17T14:30:56.807Z,49.60
2018-04-17T14:33:29.119Z,50.70
2018-04-17T14:36:01.308Z,51.10
2018-04-17T14:38:33.508Z,50.80
2018-04-17T14:41:05.646Z,50.00
2018-04-17T14:43:37.603Z,50.00
2018-04-17T14:46:09.538Z,50.90
2018-04-17T14:48:41.726Z,50.30
2018-04-17T14:51:13.772Z,51.30
2018-04-17T14:53:45.932Z,51.40
2018-04-17T14:56:18.812Z,52.40
2018-04-17T14:58:51.752Z,52.90
2018-04-17T15:01:23.988Z,52.80
2018-04-17T15:03:56.242Z,53.00
2018-04-17T15:06:29.019Z,53.50
2018-04-17T15:09:01.216Z,53.40
2018-04-17T15:11:33.724Z,54.50
2018-04-17T15:14:05.995Z,53.20
2018-04-17T15:16:38.185Z,53.90
2018-04-17T15:19:10.160Z,54.00
2018-04-17T15:21:42.197Z,53.90
2018-04-17T15:24:14.470Z,53.60
2018-04-17T15:26:46.629Z,52.90
2018-04-17T15:29:20.313Z,53.40
2018-04-17T15:31:53.745Z,53.30
2018-04-17T15:34:25.925Z,53.30
2018-04-17T15:36:58.869Z,53.30
2018-04-17T15:39:31.227Z,53.50
2018-04-17T15:42:03.470Z,53.70
2018-04-17T15:44:35.740Z,53.90
2018-04-17T15:47:08.007Z,53.90
2018-04-17T15:49:40.227Z,54.70
2018-04-17T15:52:12.295Z,54.10
2018-04-17T15:54:44.687Z,53.30
2018-04-17T15:57:18.983Z,54.00
2018-04-17T15:59:52.127Z,53.40
2018-04-17T16:02:24.660Z,53.00
2018-04-17T16:04:56.974Z,54.80
2018-04-17T16:07:29.214Z,53.70
2018-04-17T16:10:01.375Z,53.70
2018-04-17T16:12:34.395Z,54.60
2018-04-17T16:15:06.715Z,54.60
2018-04-17T16:17:38.918Z,54.00
2018-04-17T16:20:11.981Z,52.50
2018-04-17T16:22:44.255Z,52.40
2018-04-17T16:25:16.500Z,50.70
2018-04-17T16:27:48.755Z,51.50
2018-04-17T16:30:21.105Z,51.70
2018-04-17T16:32:53.395Z,53.00
2018-04-17T16:35:25.663Z,52.90
2018-04-17T16:37:57.915Z,53.70
2018-04-17T16:40:30.156Z,53.30
2018-04-17T16:43:02.178Z,53.10
2018-04-17T16:45:34.575Z,55.10
2018-04-17T16:48:07.535Z,53.90
2018-04-17T16:50:39.855Z,53.90
2018-04-17T16:53:12.755Z,55.00
2018-04-17T16:55:45.034Z,54.90
2018-04-17T16:58:17.995Z,55.20
2018-04-17T17:00:50.955Z,55.20
2018-04-17T17:03:23.134Z,55.20
2018-04-17T17:05:55.435Z,55.00
2018-04-17T17:08:27.659Z,55.20
2018-04-17T17:11:00.095Z,55.90
2018-04-17T17:13:32.319Z,55.80
2018-04-17T17:16:04.619Z,56.50
2018-04-17T17:18:36.898Z,56.60
2018-04-17T17:21:09.215Z,56.60
2018-04-17T17:23:41.355Z,57.20
2018-04-17T17:26:13.595Z,57.60
2018-04-17T17:28:45.854Z,57.90
2018-04-17T17:31:18.086Z,57.70
2018-04-17T17:33:50.315Z,57.80
2018-04-17T17:36:22.515Z,58.20
2018-04-17T17:38:54.814Z,58.20
2018-04-17T17:41:27.185Z,58.30
2018-04-17T17:44:00.199Z,58.40
2018-04-17T17:46:32.715Z,58.40
2018-04-17T17:49:06.155Z,59.10
2018-04-17T17:51:38.494Z,59.10
2018-04-17T17:54:10.735Z,59.40
2018-04-17T17:56:43.035Z,59.50
2018-04-17T17:59:15.264Z,60.20
2018-04-17T18:01:48.335Z,61.30
2018-04-17T18:04:20.538Z,61.40
2018-04-17T18:06:52.875Z,62.20
2018-04-17T18:09:26.016Z,62.80
2018-04-17T18:11:58.298Z,62.70
2018-04-17T18:14:30.554Z,63.50
2018-04-17T18:17:03.554Z,67.30
2018-04-17T18:19:35.838Z,67.30
2018-04-17T18:22:08.096Z,68.20
2018-04-17T18:24:41.035Z,68.90
2018-04-17T18:27:13.295Z,68.90
2018-04-17T18:29:45.515Z,69.60
2018-04-17T18:32:17.714Z,70.00
2018-04-17T18:34:49.914Z,71.10
2018-04-17T18:37:22.155Z,71.00
2018-04-17T18:39:54.414Z,71.70
2018-04-17T18:42:26.815Z,72.20
2018-04-17T18:44:59.018Z,73.00
2018-04-17T18:47:31.314Z,73.40
2018-04-17T18:50:03.634Z,74.40
2018-04-17T18:52:35.955Z,74.90
2018-04-17T18:55:08.194Z,75.10
2018-04-17T18:57:41.194Z,75.30
2018-04-17T19:00:13.455Z,75.30
2018-04-17T19:02:45.694Z,76.60
2018-04-17T19:05:17.913Z,77.00
2018-04-17T19:07:50.234Z,77.40
2018-04-17T19:10:22.411Z,77.50
2018-04-17T19:12:54.697Z,77.90
2018-04-17T19:15:27.017Z,77.80
2018-04-17T19:17:59.337Z,78.40
2018-04-17T19:20:31.532Z,78.00
2018-04-17T19:23:03.833Z,78.20
2018-04-17T19:25:36.092Z,78.90
2018-04-17T19:28:08.393Z,78.50
2018-04-17T19:30:40.672Z,79.30
2018-04-17T19:33:12.954Z,79.70
2018-04-17T19:35:45.196Z,79.40
2018-04-17T19:38:17.454Z,79.10
2018-04-17T19:40:49.593Z,78.70
2018-04-17T19:43:21.913Z,78.50
2018-04-17T19:45:54.194Z,78.90
2018-04-17T19:48:26.537Z,78.70
2018-04-17T19:50:58.802Z,78.90
2018-04-17T19:53:31.097Z,78.90
2018-04-17T19:56:03.395Z,78.60
2018-04-17T19:58:35.676Z,79.00
2018-04-17T20:01:08.653Z,79.10
2018-04-17T20:03:41.713Z,78.90
2018-04-17T20:06:13.913Z,78.90
2018-04-17T20:08:46.154Z,79.60
2018-04-17T20:11:18.393Z,79.70
2018-04-17T20:13:50.733Z,80.20
2018-04-17T20:16:22.875Z,80.70
2018-04-17T20:18:55.834Z,82.00
2018-04-17T20:21:28.092Z,82.00
2018-04-17T20:24:00.394Z,82.20
2018-04-17T20:26:32.617Z,82.20
2018-04-17T20:29:04.833Z,82.30
2018-04-17T20:31:37.167Z,82.20
2018-04-17T20:34:09.512Z,82.40
2018-04-17T20:36:41.755Z,82.90
2018-04-17T20:39:14.093Z,82.80
2018-04-17T20:41:46.355Z,83.30
2018-04-17T20:44:18.633Z,83.40
2018-04-17T20:46:50.873Z,83.80
2018-04-17T20:49:23.218Z,83.70
2018-04-17T20:51:55.435Z,83.30
2018-04-17T20:54:27.664Z,83.70
2018-04-17T20:56:59.978Z,83.70
2018-04-17T20:59:33.097Z,83.80
2018-04-17T21:02:05.274Z,83.80
2018-04-17T21:04:37.619Z,84.00
2018-04-17T21:07:09.954Z,84.10
2018-04-17T21:09:43.593Z,83.40
2018-04-17T21:12:16.634Z,83.90
2018-04-17T21:14:48.874Z,83.90
2018-04-17T21:17:21.194Z,84.40
2018-04-17T21:19:54.158Z,84.40
2018-04-17T21:22:26.393Z,84.60
2018-04-17T21:24:59.433Z,84.80
2018-04-17T21:27:31.553Z,84.90
2018-04-17T21:30:03.853Z,85.20
2018-04-17T21:32:36.174Z,85.00
2018-04-17T21:35:09.177Z,84.00
2018-04-17T21:37:42.217Z,84.80
2018-04-17T21:40:14.537Z,84.80
2018-04-17T21:42:47.514Z,85.00
2018-04-17T21:45:20.568Z,85.40
2018-04-17T21:47:52.857Z,85.40
2018-04-17T21:50:25.134Z,85.60
2018-04-17T21:52:57.300Z,86.90
2018-04-17T21:55:29.513Z,86.90
2018-04-17T21:58:01.694Z,86.80
2018-04-17T22:00:33.993Z,86.70
2018-04-17T22:03:06.137Z,87.40
2018-04-17T22:05:38.333Z,88.10
2018-04-17T22:08:10.493Z,87.90
2018-04-17T22:10:42.859Z,87.90
2018-04-17T22:13:15.097Z,87.90
2018-04-17T22:15:47.418Z,87.30
2018-04-17T22:18:20.413Z,86.40
2018-04-17T22:20:53.373Z,87.30
2018-04-17T22:23:25.633Z,87.20
2018-04-17T22:25:57.932Z,86.80
2018-04-17T22:28:30.113Z,86.70
2018-04-17T22:31:02.313Z,86.90
2018-04-17T22:33:34.573Z,87.20
2018-04-17T22:36:06.793Z,88.00
2018-04-17T22:38:39.995Z,88.10
2018-04-17T22:41:13.113Z,88.50
2018-04-17T22:43:45.313Z,88.50
2018-04-17T22:46:17.497Z,88.10
2018-04-17T22:48:49.773Z,88.20
2018-04-17T22:51:22.138Z,88.30
2018-04-17T22:53:54.457Z,87.40
2018-04-17T22:56:26.781Z,86.20
2018-04-17T22:58:59.113Z,84.50
2018-04-17T23:01:31.419Z,82.90
2018-04-17T23:04:03.633Z,81.80
2018-04-17T23:06:35.913Z,80.60
2018-04-17T23:09:08.093Z,81.40
2018-04-17T23:11:40.333Z,81.40
2018-04-17T23:14:12.494Z,81.10
2018-04-17T23:16:44.754Z,83.80
2018-04-17T23:19:16.954Z,84.00
2018-04-17T23:21:49.178Z,85.10
2018-04-17T23:24:21.353Z,85.50
2018-04-17T23:26:53.693Z,85.20
2018-04-17T23:29:25.897Z,85.70
2018-04-17T23:31:58.145Z,85.90
2018-04-17T23:34:30.378Z,86.40
2018-04-17T23:37:02.755Z,85.30
2018-04-17T23:39:35.033Z,86.70
2018-04-17T23:42:07.313Z,87.50
2018-04-17T23:44:39.533Z,87.40
2018-04-17T23:47:11.773Z,86.70
2018-04-17T23:49:44.013Z,87.10
2018-04-17T23:52:16.314Z,87.20
2018-04-17T23:54:48.513Z,88.40
2018-04-17T23:57:20.757Z,89.70
2018-04-17T23:59:52.994Z,90.20
